sensor_id;sensor_type;location;lat;lon;timestamp;pressure;altitude;pressure_sealevel;temperature;humidity
6694;BME280;3384;42.628;23.380;2022-08-23T00:02:04;93711.41;;;19.71;100.00
6694;BME280;3384;42.628;23.380;2022-08-23T00:04:34;93718.38;;;19.68;100.00
6694;BME280;3384;42.628;23.380;2022-08-23T00:07:03;93728.63;;;19.78;100.00
6694;BME280;3384;42.628;23.380;2022-08-23T00:09:31;93742.03;;;19.64;100.00
6694;BME280;3384;42.628;23.380;2022-08-23T00:12:07;93731.06;;;19.90;100.00
6694;BME280;3384;42.628;23.380;2022-08-23T00:14:39;93732.72;;;19.65;100.00
6694;BME280;3384;42.628;23.380;2022-08-23T00:17:07;93730.78;;;19.66;100.00
6694;BME280;3384;42.628;23.380;2022-08-23T00:19:35;93725.72;;;19.64;100.00
6694;BME280;3384;42.628;23.380;2022-08-23T00:22:02;93725.25;;;19.92;100.00
6694;BME280;3384;42.628;23.380;2022-08-23T00:24:29;93732.69;;;19.95;100.00
6694;BME280;3384;42.628;23.380;2022-08-23T00:26:59;93730.72;;;19.92;100.00
6694;BME280;3384;42.628;23.380;2022-08-23T00:29:32;93724.69;;;20.09;100.00
6694;BME280;3384;42.628;23.380;2022-08-23T00:32:00;93727.09;;;19.81;100.00
6694;BME280;3384;42.628;23.380;2022-08-23T00:34:27;93730.97;;;19.80;100.00
6694;BME280;3384;42.628;23.380;2022-08-23T00:36:54;93721.81;;;19.95;100.00
6694;BME280;3384;42.628;23.380;2022-08-23T00:39:21;93719.81;;;19.92;100.00
6694;BME280;3384;42.628;23.380;2022-08-23T00:41:49;93718.56;;;19.82;100.00
6694;BME280;3384;42.628;23.380;2022-08-23T00:44:20;93718.50;;;19.79;100.00
6694;BME280;3384;42.628;23.380;2022-08-23T00:47:09;93726.25;;;19.77;100.00
6694;BME280;3384;42.628;23.380;2022-08-23T00:49:58;93728.91;;;19.40;100.00
6694;BME280;3384;42.628;23.380;2022-08-23T00:52:33;93726.94;;;19.41;100.00
6694;BME280;3384;42.628;23.380;2022-08-23T00:55:04;93713.31;;;19.37;100.00
6694;BME280;3384;42.628;23.380;2022-08-23T00:57:31;93745.03;;;19.56;100.00
6694;BME280;3384;42.628;23.380;2022-08-23T01:00:03;93732.00;;;19.72;100.00
6694;BME280;3384;42.628;23.380;2022-08-23T01:02:32;93740.72;;;19.55;100.00
6694;BME280;3384;42.628;23.380;2022-08-23T01:04:59;93736.41;;;19.50;100.00
6694;BME280;3384;42.628;23.380;2022-08-23T01:07:40;93738.84;;;19.88;100.00
6694;BME280;3384;42.628;23.380;2022-08-23T01:10:13;93733.72;;;19.83;100.00
6694;BME280;3384;42.628;23.380;2022-08-23T01:12:46;93744.31;;;19.92;100.00
6694;BME280;3384;42.628;23.380;2022-08-23T01:15:20;93743.63;;;19.98;100.00
6694;BME280;3384;42.628;23.380;2022-08-23T01:17:54;93740.81;;;20.21;100.00
6694;BME280;3384;42.628;23.380;2022-08-23T01:20:23;93741.47;;;20.11;100.00
6694;BME280;3384;42.628;23.380;2022-08-23T01:22:55;93741.84;;;19.80;100.00
6694;BME280;3384;42.628;23.380;2022-08-23T01:25:26;93763.81;;;19.68;100.00
6694;BME280;3384;42.628;23.380;2022-08-23T01:27:54;93745.13;;;19.63;100.00
6694;BME280;3384;42.628;23.380;2022-08-23T01:30:25;93743.03;;;19.53;100.00
6694;BME280;3384;42.628;23.380;2022-08-23T01:32:55;93736.06;;;19.55;100.00
6694;BME280;3384;42.628;23.380;2022-08-23T01:35:30;93731.53;;;19.63;100.00
6694;BME280;3384;42.628;23.380;2022-08-23T01:37:59;93734.06;;;19.78;100.00
6694;BME280;3384;42.628;23.380;2022-08-23T01:40:28;93740.00;;;19.58;100.00
6694;BME280;3384;42.628;23.380;2022-08-23T01:42:57;93743.53;;;19.62;100.00
6694;BME280;3384;42.628;23.380;2022-08-23T01:45:24;93753.28;;;19.63;100.00
6694;BME280;3384;42.628;23.380;2022-08-23T01:47:51;93756.06;;;19.40;100.00
6694;BME280;3384;42.628;23.380;2022-08-23T01:50:19;93753.13;;;19.52;100.00
6694;BME280;3384;42.628;23.380;2022-08-23T01:52:45;93760.09;;;19.50;100.00
6694;BME280;3384;42.628;23.380;2022-08-23T01:55:12;93734.59;;;19.32;100.00
6694;BME280;3384;42.628;23.380;2022-08-23T01:57:42;93733.22;;;19.45;100.00
6694;BME280;3384;42.628;23.380;2022-08-23T02:00:10;93743.75;;;19.46;100.00
6694;BME280;3384;42.628;23.380;2022-08-23T02:02:37;93735.94;;;19.45;100.00
6694;BME280;3384;42.628;23.380;2022-08-23T02:05:04;93729.25;;;19.39;100.00
6694;BME280;3384;42.628;23.380;2022-08-23T02:07:31;93736.97;;;19.63;100.00
6694;BME280;3384;42.628;23.380;2022-08-23T02:09:58;93750.69;;;19.73;100.00
6694;BME280;3384;42.628;23.380;2022-08-23T02:12:25;93744.56;;;19.80;100.00
6694;BME280;3384;42.628;23.380;2022-08-23T02:14:53;93732.88;;;19.76;100.00
6694;BME280;3384;42.628;23.380;2022-08-23T02:17:21;93745.03;;;19.89;100.00
6694;BME280;3384;42.628;23.380;2022-08-23T02:19:48;93753.28;;;19.96;100.00
6694;BME280;3384;42.628;23.380;2022-08-23T02:22:15;93749.66;;;19.85;100.00
6694;BME280;3384;42.628;23.380;2022-08-23T02:24:44;93737.88;;;19.74;100.00
6694;BME280;3384;42.628;23.380;2022-08-23T02:27:13;93728.63;;;19.78;100.00
6694;BME280;3384;42.628;23.380;2022-08-23T02:29:41;93726.50;;;19.98;100.00
6694;BME280;3384;42.628;23.380;2022-08-23T02:32:11;93719.13;;;20.31;100.00
6694;BME280;3384;42.628;23.380;2022-08-23T02:34:39;93737.13;;;20.43;100.00
6694;BME280;3384;42.628;23.380;2022-08-23T02:37:09;93737.69;;;20.62;100.00
6694;BME280;3384;42.628;23.380;2022-08-23T02:39:37;93736.25;;;20.35;100.00
6694;BME280;3384;42.628;23.380;2022-08-23T02:42:05;93764.94;;;20.26;100.00
6694;BME280;3384;42.628;23.380;2022-08-23T02:44:32;93738.56;;;20.00;100.00
6694;BME280;3384;42.628;23.380;2022-08-23T02:47:00;93749.09;;;19.69;100.00
6694;BME280;3384;42.628;23.380;2022-08-23T02:49:28;93741.63;;;19.95;100.00
6694;BME280;3384;42.628;23.380;2022-08-23T02:51:55;93734.75;;;20.05;100.00
6694;BME280;3384;42.628;23.380;2022-08-23T02:54:22;93734.59;;;20.24;100.00
6694;BME280;3384;42.628;23.380;2022-08-23T02:56:49;93732.94;;;20.16;100.00
6694;BME280;3384;42.628;23.380;2022-08-23T02:59:17;93718.06;;;20.10;100.00
6694;BME280;3384;42.628;23.380;2022-08-23T03:01:44;93721.78;;;19.91;100.00
6694;BME280;3384;42.628;23.380;2022-08-23T03:04:11;93716.03;;;19.67;100.00
6694;BME280;3384;42.628;23.380;2022-08-23T03:06:39;93712.19;;;20.04;100.00
6694;BME280;3384;42.628;23.380;2022-08-23T03:09:06;93713.00;;;20.41;100.00
6694;BME280;3384;42.628;23.380;2022-08-23T03:11:34;93709.84;;;20.36;100.00
6694;BME280;3384;42.628;23.380;2022-08-23T03:14:01;93709.53;;;20.44;100.00
6694;BME280;3384;42.628;23.380;2022-08-23T03:16:28;93703.81;;;20.16;100.00
6694;BME280;3384;42.628;23.380;2022-08-23T03:18:55;93721.06;;;19.98;100.00
6694;BME280;3384;42.628;23.380;2022-08-23T03:21:22;93707.13;;;20.03;100.00
6694;BME280;3384;42.628;23.380;2022-08-23T03:23:50;93706.31;;;20.35;100.00
6694;BME280;3384;42.628;23.380;2022-08-23T03:26:17;93713.41;;;20.43;100.00
6694;BME280;3384;42.628;23.380;2022-08-23T03:28:45;93721.34;;;20.22;100.00
6694;BME280;3384;42.628;23.380;2022-08-23T03:31:13;93709.78;;;20.29;100.00
6694;BME280;3384;42.628;23.380;2022-08-23T03:33:41;93720.19;;;20.63;100.00
6694;BME280;3384;42.628;23.380;2022-08-23T03:36:09;93707.88;;;20.76;100.00
6694;BME280;3384;42.628;23.380;2022-08-23T03:38:38;93710.59;;;20.76;100.00
6694;BME280;3384;42.628;23.380;2022-08-23T03:41:08;93719.56;;;20.77;100.00
6694;BME280;3384;42.628;23.380;2022-08-23T03:43:35;93710.53;;;20.69;100.00
6694;BME280;3384;42.628;23.380;2022-08-23T03:46:03;93723.03;;;20.34;100.00
6694;BME280;3384;42.628;23.380;2022-08-23T03:48:30;93737.94;;;20.47;100.00
6694;BME280;3384;42.628;23.380;2022-08-23T03:50:57;93733.38;;;20.18;100.00
6694;BME280;3384;42.628;23.380;2022-08-23T03:53:24;93742.31;;;20.18;100.00
6694;BME280;3384;42.628;23.380;2022-08-23T03:55:52;93742.50;;;20.03;100.00
6694;BME280;3384;42.628;23.380;2022-08-23T03:58:22;93745.00;;;19.85;100.00
6694;BME280;3384;42.628;23.380;2022-08-23T04:00:51;93747.75;;;19.56;100.00
6694;BME280;3384;42.628;23.380;2022-08-23T04:03:18;93761.47;;;19.66;100.00
6694;BME280;3384;42.628;23.380;2022-08-23T04:05:44;93761.56;;;19.73;100.00
6694;BME280;3384;42.628;23.380;2022-08-23T04:08:12;93758.75;;;19.66;100.00
6694;BME280;3384;42.628;23.380;2022-08-23T04:10:40;93763.63;;;19.54;100.00
6694;BME280;3384;42.628;23.380;2022-08-23T04:13:07;93769.50;;;19.56;100.00
6694;BME280;3384;42.628;23.380;2022-08-23T04:15:36;93756.53;;;19.46;100.00
6694;BME280;3384;42.628;23.380;2022-08-23T04:18:04;93764.78;;;19.53;100.00
6694;BME280;3384;42.628;23.380;2022-08-23T04:20:31;93773.75;;;19.53;100.00
6694;BME280;3384;42.628;23.380;2022-08-23T04:22:59;93773.66;;;19.50;100.00
6694;BME280;3384;42.628;23.380;2022-08-23T04:25:26;93761.59;;;19.47;100.00
6694;BME280;3384;42.628;23.380;2022-08-23T04:27:53;93766.38;;;19.05;100.00
6694;BME280;3384;42.628;23.380;2022-08-23T04:30:20;93768.22;;;19.24;100.00
6694;BME280;3384;42.628;23.380;2022-08-23T04:32:48;93767.97;;;19.32;100.00
6694;BME280;3384;42.628;23.380;2022-08-23T04:35:15;93768.38;;;19.31;100.00
6694;BME280;3384;42.628;23.380;2022-08-23T04:37:42;93774.00;;;19.45;100.00
6694;BME280;3384;42.628;23.380;2022-08-23T04:40:10;93781.16;;;19.08;100.00
6694;BME280;3384;42.628;23.380;2022-08-23T04:42:55;93786.69;;;19.37;100.00
6694;BME280;3384;42.628;23.380;2022-08-23T04:45:23;93794.78;;;19.34;100.00
6694;BME280;3384;42.628;23.380;2022-08-23T04:47:53;93802.28;;;19.40;100.00
6694;BME280;3384;42.628;23.380;2022-08-23T04:50:20;93800.09;;;19.27;100.00
6694;BME280;3384;42.628;23.380;2022-08-23T04:52:47;93786.47;;;19.23;100.00
6694;BME280;3384;42.628;23.380;2022-08-23T04:55:14;93800.81;;;19.46;100.00
6694;BME280;3384;42.628;23.380;2022-08-23T04:57:41;93817.50;;;19.45;100.00
6694;BME280;3384;42.628;23.380;2022-08-23T05:00:10;93808.22;;;19.49;100.00
6694;BME280;3384;42.628;23.380;2022-08-23T05:02:40;93799.88;;;19.65;100.00
6694;BME280;3384;42.628;23.380;2022-08-23T05:05:09;93807.41;;;19.75;100.00
6694;BME280;3384;42.628;23.380;2022-08-23T05:07:37;93811.13;;;19.89;100.00
6694;BME280;3384;42.628;23.380;2022-08-23T05:10:06;93815.81;;;19.92;100.00
6694;BME280;3384;42.628;23.380;2022-08-23T05:12:33;93822.81;;;19.93;100.00
6694;BME280;3384;42.628;23.380;2022-08-23T05:18:54;93817.34;;;19.90;100.00
6694;BME280;3384;42.628;23.380;2022-08-23T05:24:44;93828.81;;;20.06;100.00
6694;BME280;3384;42.628;23.380;2022-08-23T05:30:33;93819.38;;;19.70;100.00
6694;BME280;3384;42.628;23.380;2022-08-23T05:33:33;93824.16;;;19.77;100.00
6694;BME280;3384;42.628;23.380;2022-08-23T05:36:02;93813.41;;;19.87;100.00
6694;BME280;3384;42.628;23.380;2022-08-23T05:38:30;93804.50;;;19.90;100.00
6694;BME280;3384;42.628;23.380;2022-08-23T05:41:06;93811.06;;;19.86;100.00
6694;BME280;3384;42.628;23.380;2022-08-23T05:47:14;93821.47;;;19.80;100.00
6694;BME280;3384;42.628;23.380;2022-08-23T05:53:23;93830.69;;;19.98;100.00
6694;BME280;3384;42.628;23.380;2022-08-23T05:59:40;93831.13;;;20.04;100.00
6694;BME280;3384;42.628;23.380;2022-08-23T06:02:07;93831.09;;;20.30;100.00
6694;BME280;3384;42.628;23.380;2022-08-23T06:04:33;93824.03;;;20.25;100.00
6694;BME280;3384;42.628;23.380;2022-08-23T06:07:00;93838.50;;;20.33;100.00
6694;BME280;3384;42.628;23.380;2022-08-23T06:09:27;93839.34;;;20.37;100.00
6694;BME280;3384;42.628;23.380;2022-08-23T06:11:54;93833.72;;;20.56;100.00
6694;BME280;3384;42.628;23.380;2022-08-23T06:14:23;93836.91;;;20.61;100.00
6694;BME280;3384;42.628;23.380;2022-08-23T06:16:51;93832.22;;;20.62;100.00
6694;BME280;3384;42.628;23.380;2022-08-23T06:19:18;93844.34;;;21.01;100.00
6694;BME280;3384;42.628;23.380;2022-08-23T06:21:45;93844.91;;;21.20;100.00
6694;BME280;3384;42.628;23.380;2022-08-23T06:24:12;93836.09;;;20.61;100.00
6694;BME280;3384;42.628;23.380;2022-08-23T06:26:41;93849.22;;;21.25;100.00
6694;BME280;3384;42.628;23.380;2022-08-23T06:29:11;93852.22;;;21.13;100.00
6694;BME280;3384;42.628;23.380;2022-08-23T06:35:01;93848.56;;;21.38;100.00
6694;BME280;3384;42.628;23.380;2022-08-23T06:37:28;93861.28;;;20.87;100.00
6694;BME280;3384;42.628;23.380;2022-08-23T06:39:55;93869.09;;;20.89;100.00
6694;BME280;3384;42.628;23.380;2022-08-23T06:42:22;93860.63;;;20.94;100.00
6694;BME280;3384;42.628;23.380;2022-08-23T06:44:50;93867.19;;;21.33;100.00
6694;BME280;3384;42.628;23.380;2022-08-23T06:47:17;93874.03;;;21.13;100.00
6694;BME280;3384;42.628;23.380;2022-08-23T06:49:43;93876.84;;;21.23;100.00
6694;BME280;3384;42.628;23.380;2022-08-23T06:52:12;93876.03;;;21.63;100.00
6694;BME280;3384;42.628;23.380;2022-08-23T06:54:38;93875.31;;;21.26;100.00
6694;BME280;3384;42.628;23.380;2022-08-23T06:57:05;93859.75;;;21.74;100.00
6694;BME280;3384;42.628;23.380;2022-08-23T06:59:32;93870.34;;;21.82;100.00
6694;BME280;3384;42.628;23.380;2022-08-23T07:02:00;93889.34;;;21.28;100.00
6694;BME280;3384;42.628;23.380;2022-08-23T07:04:30;93878.16;;;21.40;100.00
6694;BME280;3384;42.628;23.380;2022-08-23T07:06:57;93884.03;;;21.42;100.00
6694;BME280;3384;42.628;23.380;2022-08-23T07:09:27;93887.50;;;21.39;100.00
6694;BME280;3384;42.628;23.380;2022-08-23T07:11:54;93878.03;;;21.26;100.00
6694;BME280;3384;42.628;23.380;2022-08-23T07:14:22;93874.13;;;21.23;100.00
6694;BME280;3384;42.628;23.380;2022-08-23T07:16:51;93879.47;;;21.13;100.00
6694;BME280;3384;42.628;23.380;2022-08-23T07:19:20;93874.78;;;21.10;100.00
6694;BME280;3384;42.628;23.380;2022-08-23T07:21:48;93873.75;;;21.25;100.00
6694;BME280;3384;42.628;23.380;2022-08-23T07:24:15;93869.06;;;21.22;100.00
6694;BME280;3384;42.628;23.380;2022-08-23T07:26:45;93866.97;;;21.08;100.00
6694;BME280;3384;42.628;23.380;2022-08-23T07:29:13;93873.28;;;21.16;100.00
6694;BME280;3384;42.628;23.380;2022-08-23T07:31:43;93877.03;;;21.44;100.00
6694;BME280;3384;42.628;23.380;2022-08-23T07:34:11;93884.78;;;21.39;100.00
6694;BME280;3384;42.628;23.380;2022-08-23T07:36:39;93877.28;;;21.29;100.00
6694;BME280;3384;42.628;23.380;2022-08-23T07:39:07;93889.88;;;21.44;100.00
6694;BME280;3384;42.628;23.380;2022-08-23T07:41:34;93904.44;;;21.62;100.00
6694;BME280;3384;42.628;23.380;2022-08-23T07:44:05;93872.88;;;21.61;100.00
6694;BME280;3384;42.628;23.380;2022-08-23T07:46:33;93887.31;;;21.62;100.00
6694;BME280;3384;42.628;23.380;2022-08-23T07:49:01;93885.19;;;21.41;100.00
6694;BME280;3384;42.628;23.380;2022-08-23T07:51:31;93898.22;;;21.62;100.00
6694;BME280;3384;42.628;23.380;2022-08-23T07:54:00;93885.34;;;21.62;100.00
6694;BME280;3384;42.628;23.380;2022-08-23T07:56:27;93900.53;;;21.59;100.00
6694;BME280;3384;42.628;23.380;2022-08-23T07:58:54;93887.81;;;21.74;100.00
6694;BME280;3384;42.628;23.380;2022-08-23T08:01:24;93896.41;;;21.32;100.00
6694;BME280;3384;42.628;23.380;2022-08-23T08:03:53;93895.41;;;21.51;100.00
6694;BME280;3384;42.628;23.380;2022-08-23T08:06:22;93907.16;;;21.62;100.00
6694;BME280;3384;42.628;23.380;2022-08-23T08:08:50;93900.78;;;21.40;100.00
6694;BME280;3384;42.628;23.380;2022-08-23T08:11:19;93897.81;;;21.59;100.00
6694;BME280;3384;42.628;23.380;2022-08-23T08:13:48;93903.88;;;21.86;100.00
6694;BME280;3384;42.628;23.380;2022-08-23T08:16:22;93898.34;;;21.76;100.00
6694;BME280;3384;42.628;23.380;2022-08-23T08:18:49;93906.56;;;21.79;100.00
6694;BME280;3384;42.628;23.380;2022-08-23T08:21:16;93905.66;;;22.15;100.00
6694;BME280;3384;42.628;23.380;2022-08-23T08:23:43;93912.56;;;22.02;100.00
6694;BME280;3384;42.628;23.380;2022-08-23T08:26:10;93904.09;;;22.21;100.00
6694;BME280;3384;42.628;23.380;2022-08-23T08:28:38;93901.72;;;22.13;100.00
6694;BME280;3384;42.628;23.380;2022-08-23T08:31:08;93906.03;;;22.17;100.00
6694;BME280;3384;42.628;23.380;2022-08-23T08:33:36;93904.94;;;22.25;100.00
6694;BME280;3384;42.628;23.380;2022-08-23T08:36:04;93906.38;;;22.05;100.00
6694;BME280;3384;42.628;23.380;2022-08-23T08:38:32;93905.41;;;22.45;100.00
6694;BME280;3384;42.628;23.380;2022-08-23T08:41:05;93917.53;;;22.47;100.00
6694;BME280;3384;42.628;23.380;2022-08-23T08:43:37;93902.34;;;22.50;100.00
6694;BME280;3384;42.628;23.380;2022-08-23T08:46:15;93894.63;;;22.69;100.00
6694;BME280;3384;42.628;23.380;2022-08-23T08:48:49;93897.31;;;22.59;100.00
6694;BME280;3384;42.628;23.380;2022-08-23T08:51:32;93905.44;;;22.48;100.00
6694;BME280;3384;42.628;23.380;2022-08-23T08:54:02;93897.41;;;22.90;100.00
6694;BME280;3384;42.628;23.380;2022-08-23T08:56:33;93892.41;;;23.20;100.00
6694;BME280;3384;42.628;23.380;2022-08-23T08:59:04;93881.78;;;22.87;100.00
6694;BME280;3384;42.628;23.380;2022-08-23T09:01:34;93884.06;;;22.68;100.00
6694;BME280;3384;42.628;23.380;2022-08-23T09:04:03;93876.84;;;22.28;100.00
6694;BME280;3384;42.628;23.380;2022-08-23T09:06:35;93876.53;;;22.40;100.00
6694;BME280;3384;42.628;23.380;2022-08-23T09:09:14;93872.63;;;22.41;100.00
6694;BME280;3384;42.628;23.380;2022-08-23T09:11:50;93866.53;;;22.72;100.00
6694;BME280;3384;42.628;23.380;2022-08-23T09:14:37;93895.44;;;22.80;100.00
6694;BME280;3384;42.628;23.380;2022-08-23T09:17:17;93875.50;;;22.66;100.00
6694;BME280;3384;42.628;23.380;2022-08-23T09:19:47;93875.94;;;22.89;100.00
6694;BME280;3384;42.628;23.380;2022-08-23T09:22:19;93878.28;;;22.87;100.00
6694;BME280;3384;42.628;23.380;2022-08-23T09:24:50;93864.72;;;23.36;100.00
6694;BME280;3384;42.628;23.380;2022-08-23T09:27:18;93863.56;;;23.54;100.00
6694;BME280;3384;42.628;23.380;2022-08-23T09:29:52;93872.06;;;23.07;100.00
6694;BME280;3384;42.628;23.380;2022-08-23T09:32:32;93869.41;;;23.25;100.00
6694;BME280;3384;42.628;23.380;2022-08-23T09:35:11;93856.44;;;22.97;100.00
6694;BME280;3384;42.628;23.380;2022-08-23T09:37:59;93865.81;;;22.96;100.00
6694;BME280;3384;42.628;23.380;2022-08-23T09:40:34;93865.81;;;22.96;100.00
6694;BME280;3384;42.628;23.380;2022-08-23T09:43:10;93869.75;;;23.02;100.00
6694;BME280;3384;42.628;23.380;2022-08-23T09:45:39;93871.31;;;23.17;100.00
6694;BME280;3384;42.628;23.380;2022-08-23T09:48:11;93868.63;;;23.31;100.00
6694;BME280;3384;42.628;23.380;2022-08-23T09:50:43;93871.78;;;23.47;100.00
6694;BME280;3384;42.628;23.380;2022-08-23T09:53:15;93869.03;;;23.58;100.00
6694;BME280;3384;42.628;23.380;2022-08-23T09:55:51;93854.19;;;23.62;100.00
6694;BME280;3384;42.628;23.380;2022-08-23T09:58:25;93868.25;;;23.22;100.00
6694;BME280;3384;42.628;23.380;2022-08-23T10:01:07;93865.13;;;23.55;100.00
6694;BME280;3384;42.628;23.380;2022-08-23T10:03:36;93865.91;;;24.05;100.00
6694;BME280;3384;42.628;23.380;2022-08-23T10:06:05;93873.72;;;23.85;100.00
6694;BME280;3384;42.628;23.380;2022-08-23T10:08:35;93865.13;;;23.59;100.00
6694;BME280;3384;42.628;23.380;2022-08-23T10:11:10;93866.69;;;23.70;100.00
6694;BME280;3384;42.628;23.380;2022-08-23T10:13:41;93866.66;;;23.88;100.00
6694;BME280;3384;42.628;23.380;2022-08-23T10:16:17;93866.28;;;23.79;100.00
6694;BME280;3384;42.628;23.380;2022-08-23T10:18:53;93868.22;;;23.89;100.00
6694;BME280;3384;42.628;23.380;2022-08-23T10:21:32;93848.69;;;24.04;100.00
6694;BME280;3384;42.628;23.380;2022-08-23T10:24:18;93858.47;;;23.88;100.00
6694;BME280;3384;42.628;23.380;2022-08-23T10:27:01;93859.25;;;24.02;100.00
6694;BME280;3384;42.628;23.380;2022-08-23T10:29:56;93850.22;;;24.20;100.00
6694;BME280;3384;42.628;23.380;2022-08-23T10:32:28;93844.38;;;24.03;100.00
6694;BME280;3384;42.628;23.380;2022-08-23T10:35:16;93838.91;;;23.93;100.00
6694;BME280;3384;42.628;23.380;2022-08-23T10:37:57;93854.53;;;24.10;100.00
6694;BME280;3384;42.628;23.380;2022-08-23T10:40:37;93853.78;;;23.95;100.00
6694;BME280;3384;42.628;23.380;2022-08-23T10:43:14;93838.44;;;24.30;100.00
6694;BME280;3384;42.628;23.380;2022-08-23T10:45:45;93828.72;;;24.08;100.00
6694;BME280;3384;42.628;23.380;2022-08-23T10:48:20;93842.78;;;24.20;100.00
6694;BME280;3384;42.628;23.380;2022-08-23T10:50:55;93822.84;;;24.20;100.00
6694;BME280;3384;42.628;23.380;2022-08-23T10:53:33;93831.41;;;24.22;100.00
6694;BME280;3384;42.628;23.380;2022-08-23T10:56:00;93833.75;;;24.34;100.00
6694;BME280;3384;42.628;23.380;2022-08-23T10:58:38;93836.75;;;24.64;100.00
6694;BME280;3384;42.628;23.380;2022-08-23T11:01:07;93837.53;;;24.61;100.00
6694;BME280;3384;42.628;23.380;2022-08-23T11:03:41;93845.66;;;24.89;100.00
6694;BME280;3384;42.628;23.380;2022-08-23T11:06:40;93834.41;;;24.66;100.00
6694;BME280;3384;42.628;23.380;2022-08-23T11:09:29;93842.94;;;24.89;100.00
6694;BME280;3384;42.628;23.380;2022-08-23T11:12:11;93836.81;;;25.25;100.00
6694;BME280;3384;42.628;23.380;2022-08-23T11:14:45;93836.97;;;25.04;100.00
6694;BME280;3384;42.628;23.380;2022-08-23T11:17:24;93841.63;;;25.11;100.00
6694;BME280;3384;42.628;23.380;2022-08-23T11:19:54;93834.22;;;24.97;100.00
6694;BME280;3384;42.628;23.380;2022-08-23T11:22:23;93838.91;;;25.00;100.00
6694;BME280;3384;42.628;23.380;2022-08-23T11:24:55;93855.44;;;25.55;99.56
6694;BME280;3384;42.628;23.380;2022-08-23T11:27:28;93837.78;;;25.56;100.00
6694;BME280;3384;42.628;23.380;2022-08-23T11:29:56;93836.59;;;25.57;100.00
6694;BME280;3384;42.628;23.380;2022-08-23T11:32:39;93829.34;;;25.33;100.00
6694;BME280;3384;42.628;23.380;2022-08-23T11:35:27;93834.94;;;25.66;98.83
6694;BME280;3384;42.628;23.380;2022-08-23T11:37:59;93830.50;;;25.83;95.82
6694;BME280;3384;42.628;23.380;2022-08-23T11:40:55;93823.88;;;25.77;100.00
6694;BME280;3384;42.628;23.380;2022-08-23T11:43:27;93826.59;;;25.33;100.00
6694;BME280;3384;42.628;23.380;2022-08-23T11:46:13;93814.91;;;25.73;100.00
6694;BME280;3384;42.628;23.380;2022-08-23T11:48:44;93816.84;;;25.76;100.00
6694;BME280;3384;42.628;23.380;2022-08-23T11:51:21;93823.56;;;25.68;100.00
6694;BME280;3384;42.628;23.380;2022-08-23T11:54:33;93820.75;;;25.75;99.14
6694;BME280;3384;42.628;23.380;2022-08-23T11:57:18;93822.59;;;25.88;94.54
6694;BME280;3384;42.628;23.380;2022-08-23T12:00:07;93816.94;;;26.06;91.23
6694;BME280;3384;42.628;23.380;2022-08-23T12:02:50;93828.91;;;26.26;89.87
6694;BME280;3384;42.628;23.380;2022-08-23T12:05:24;93819.25;;;26.11;91.33
6694;BME280;3384;42.628;23.380;2022-08-23T12:08:29;93819.28;;;26.07;92.00
6694;BME280;3384;42.628;23.380;2022-08-23T12:11:01;93827.19;;;26.02;95.59
6694;BME280;3384;42.628;23.380;2022-08-23T12:13:43;93825.28;;;25.95;100.00
6694;BME280;3384;42.628;23.380;2022-08-23T12:16:32;93811.22;;;25.42;100.00
6694;BME280;3384;42.628;23.380;2022-08-23T12:19:03;93821.22;;;25.66;100.00
6694;BME280;3384;42.628;23.380;2022-08-23T12:21:40;93819.78;;;25.55;100.00
6694;BME280;3384;42.628;23.380;2022-08-23T12:24:14;93811.00;;;25.16;100.00
6694;BME280;3384;42.628;23.380;2022-08-23T12:26:48;93821.91;;;25.30;100.00
6694;BME280;3384;42.628;23.380;2022-08-23T12:29:27;93798.97;;;25.54;100.00
6694;BME280;3384;42.628;23.380;2022-08-23T12:32:05;93808.63;;;25.72;100.00
6694;BME280;3384;42.628;23.380;2022-08-23T12:34:41;93808.56;;;25.79;100.00
6694;BME280;3384;42.628;23.380;2022-08-23T12:37:19;93801.47;;;25.82;100.00
6694;BME280;3384;42.628;23.380;2022-08-23T12:39:54;93799.38;;;25.96;100.00
6694;BME280;3384;42.628;23.380;2022-08-23T12:42:26;93801.69;;;25.57;100.00
6694;BME280;3384;42.628;23.380;2022-08-23T12:45:06;93798.78;;;25.27;100.00
6694;BME280;3384;42.628;23.380;2022-08-23T12:47:33;93789.56;;;25.55;100.00
6694;BME280;3384;42.628;23.380;2022-08-23T12:50:04;93802.44;;;25.65;100.00
6694;BME280;3384;42.628;23.380;2022-08-23T12:52:33;93798.03;;;25.71;100.00
6694;BME280;3384;42.628;23.380;2022-08-23T12:55:11;93801.16;;;25.25;100.00
6694;BME280;3384;42.628;23.380;2022-08-23T12:57:41;93803.50;;;25.30;100.00
6694;BME280;3384;42.628;23.380;2022-08-23T13:00:18;93797.94;;;25.41;100.00
6694;BME280;3384;42.628;23.380;2022-08-23T13:02:49;93790.31;;;25.08;100.00
6694;BME280;3384;42.628;23.380;2022-08-23T13:05:20;93783.91;;;25.21;100.00
6694;BME280;3384;42.628;23.380;2022-08-23T13:07:52;93781.56;;;25.23;100.00
6694;BME280;3384;42.628;23.380;2022-08-23T13:10:19;93794.94;;;25.14;100.00
6694;BME280;3384;42.628;23.380;2022-08-23T13:12:46;93790.91;;;25.33;100.00
6694;BME280;3384;42.628;23.380;2022-08-23T13:15:46;93781.13;;;25.28;100.00
6694;BME280;3384;42.628;23.380;2022-08-23T13:18:30;93781.94;;;25.25;100.00
6694;BME280;3384;42.628;23.380;2022-08-23T13:21:27;93782.97;;;24.94;100.00
6694;BME280;3384;42.628;23.380;2022-08-23T13:23:57;93786.31;;;25.19;100.00
6694;BME280;3384;42.628;23.380;2022-08-23T13:26:34;93778.47;;;25.18;100.00
6694;BME280;3384;42.628;23.380;2022-08-23T13:29:08;93775.84;;;25.00;100.00
6694;BME280;3384;42.628;23.380;2022-08-23T13:31:51;93782.81;;;25.12;100.00
6694;BME280;3384;42.628;23.380;2022-08-23T13:34:32;93776.94;;;25.17;100.00
6694;BME280;3384;42.628;23.380;2022-08-23T13:37:01;93773.09;;;25.04;100.00
6694;BME280;3384;42.628;23.380;2022-08-23T13:39:30;93776.69;;;24.90;100.00
6694;BME280;3384;42.628;23.380;2022-08-23T13:41:58;93778.56;;;25.04;100.00
6694;BME280;3384;42.628;23.380;2022-08-23T13:44:25;93782.56;;;24.96;100.00
6694;BME280;3384;42.628;23.380;2022-08-23T13:46:57;93779.97;;;24.61;100.00
6694;BME280;3384;42.628;23.380;2022-08-23T13:49:26;93782.09;;;24.32;100.00